createdAt,value
2023-02-23T00:02:07.857Z,7.93
2023-02-23T00:04:36.726Z,7.35
2023-02-23T00:07:06.326Z,8.95
2023-02-23T00:09:36.756Z,8.85
2023-02-23T00:12:09.170Z,8.57
2023-02-23T00:14:38.183Z,8.82
2023-02-23T00:17:14.406Z,8.50
2023-02-23T00:19:43.895Z,8.82
2023-02-23T00:22:12.835Z,8.10
2023-02-23T00:24:42.630Z,8.85
2023-02-23T00:27:10.751Z,7.97
2023-02-23T00:29:40.433Z,10.15
2023-02-23T00:32:08.273Z,10.32
2023-02-23T00:34:36.998Z,9.32
2023-02-23T00:37:05.506Z,9.73
2023-02-23T00:39:33.065Z,9.43
2023-02-23T00:42:03.095Z,9.27
2023-02-23T00:44:32.487Z,9.13
2023-02-23T00:47:01.141Z,11.75
2023-02-23T00:49:28.847Z,10.23
2023-02-23T00:51:56.161Z,11.43
2023-02-23T00:54:23.819Z,10.70
2023-02-23T00:56:51.680Z,10.15
2023-02-23T00:59:20.216Z,11.00
2023-02-23T01:01:48.289Z,10.65
2023-02-23T01:04:16.839Z,11.35
2023-02-23T01:06:44.128Z,9.80
2023-02-23T01:09:16.233Z,11.02
2023-02-23T01:11:46.963Z,10.00
2023-02-23T01:16:42.595Z,10.95
2023-02-23T01:19:10.576Z,11.63
2023-02-23T01:21:42.106Z,12.02
2023-02-23T01:24:10.503Z,11.98
2023-02-23T01:26:40.801Z,11.55
2023-02-23T01:29:12.875Z,11.32
2023-02-23T01:31:43.572Z,13.10
2023-02-23T01:34:13.027Z,12.97
2023-02-23T01:36:42.782Z,13.40
2023-02-23T01:39:16.024Z,13.60
2023-02-23T01:41:44.518Z,13.40
2023-02-23T01:44:15.183Z,13.15
2023-02-23T01:46:45.517Z,14.40
2023-02-23T01:49:26.099Z,13.98
2023-02-23T01:52:03.050Z,13.20
2023-02-23T01:54:38.991Z,15.40
2023-02-23T01:57:09.021Z,13.05
2023-02-23T01:59:42.035Z,13.18
2023-02-23T02:02:09.694Z,13.40
2023-02-23T02:04:45.797Z,14.32
2023-02-23T02:07:17.816Z,13.40
2023-02-23T02:10:17.183Z,13.93
2023-02-23T02:12:47.058Z,13.23
2023-02-23T02:15:18.146Z,13.23
2023-02-23T02:17:57.082Z,21.08
2023-02-23T02:20:42.889Z,13.07
2023-02-23T02:23:16.182Z,13.57
2023-02-23T02:26:01.701Z,14.18
2023-02-23T02:28:44.987Z,14.15
2023-02-23T02:31:42.703Z,12.30
2023-02-23T02:34:42.953Z,12.50
2023-02-23T02:37:36.707Z,11.88
2023-02-23T02:40:37.158Z,11.40
2023-02-23T02:43:21.296Z,12.52
2023-02-23T02:45:57.217Z,10.23
2023-02-23T02:48:31.317Z,10.13
2023-02-23T02:51:04.094Z,10.50
2023-02-23T02:53:58.965Z,11.32
2023-02-23T02:56:27.409Z,8.90
2023-02-23T02:58:56.080Z,9.88
2023-02-23T03:01:41.868Z,10.85
2023-02-23T03:04:43.956Z,9.50
2023-02-23T03:07:43.903Z,10.75
2023-02-23T03:11:00.478Z,9.30
2023-02-23T03:14:22.758Z,9.82
2023-02-23T03:17:19.714Z,11.30
2023-02-23T03:20:22.322Z,9.85
2023-02-23T03:23:18.030Z,11.15
2023-02-23T03:26:59.316Z,10.32
2023-02-23T03:29:55.752Z,10.68
2023-02-23T03:33:00.337Z,8.68
2023-02-23T03:35:57.675Z,8.43
2023-02-23T03:39:03.855Z,9.05
2023-02-23T03:41:52.529Z,8.63
2023-02-23T03:44:46.608Z,7.68
2023-02-23T03:47:37.107Z,8.48
2023-02-23T03:50:28.594Z,7.72
2023-02-23T03:53:19.141Z,9.05
2023-02-23T03:56:11.908Z,7.13
2023-02-23T03:59:03.502Z,8.85
2023-02-23T04:01:51.396Z,7.28
2023-02-23T04:04:39.074Z,7.28
2023-02-23T04:07:26.862Z,7.18
2023-02-23T04:10:13.176Z,7.78
2023-02-23T04:13:05.436Z,7.53
2023-02-23T04:15:34.108Z,7.20
2023-02-23T04:18:04.705Z,7.47
2023-02-23T04:20:33.602Z,8.15
2023-02-23T04:23:01.231Z,7.93
2023-02-23T04:25:30.204Z,7.40
2023-02-23T04:27:57.438Z,7.68
2023-02-23T04:30:25.993Z,7.10
2023-02-23T04:32:53.550Z,7.57
2023-02-23T04:35:21.215Z,6.78
2023-02-23T04:37:48.543Z,7.07
2023-02-23T04:40:16.185Z,7.50
2023-02-23T04:42:43.461Z,7.70
2023-02-23T04:45:11.395Z,7.43
2023-02-23T04:47:38.859Z,7.65
2023-02-23T04:50:06.889Z,7.82
2023-02-23T04:52:35.138Z,7.97
2023-02-23T04:55:02.656Z,6.10
2023-02-23T04:57:29.960Z,6.85
2023-02-23T04:59:57.589Z,6.55
2023-02-23T05:02:25.220Z,7.20
2023-02-23T05:04:52.862Z,6.22
2023-02-23T05:07:20.114Z,6.57
2023-02-23T05:09:47.654Z,7.10
2023-02-23T05:12:15.116Z,6.05
2023-02-23T05:14:42.628Z,7.05
2023-02-23T05:17:09.916Z,6.35
2023-02-23T05:19:38.029Z,7.25
2023-02-23T05:22:05.354Z,7.20
2023-02-23T05:24:33.103Z,7.28
2023-02-23T05:27:00.616Z,6.50
2023-02-23T05:29:28.123Z,7.65
2023-02-23T05:31:55.466Z,7.38
2023-02-23T05:34:23.165Z,7.85
2023-02-23T05:36:50.401Z,8.18
2023-02-23T05:39:17.982Z,6.18
2023-02-23T05:41:45.407Z,7.85
2023-02-23T05:44:13.177Z,7.63
2023-02-23T05:46:40.521Z,7.43
2023-02-23T05:49:08.083Z,7.13
2023-02-23T05:51:35.661Z,7.60
2023-02-23T05:54:03.275Z,8.73
2023-02-23T05:56:30.519Z,8.23
2023-02-23T05:58:59.399Z,6.68
2023-02-23T06:01:27.815Z,9.93
2023-02-23T06:03:56.213Z,8.52
2023-02-23T06:06:25.494Z,8.05
2023-02-23T06:08:53.605Z,7.43
2023-02-23T06:11:21.608Z,7.93
2023-02-23T06:13:49.746Z,7.53
2023-02-23T06:16:17.254Z,8.57
2023-02-23T06:18:44.997Z,7.68
2023-02-23T06:21:12.230Z,6.90
2023-02-23T06:23:39.790Z,8.18
2023-02-23T06:26:07.874Z,9.27
2023-02-23T06:28:35.560Z,8.13
2023-02-23T06:31:02.861Z,8.27
2023-02-23T06:33:30.449Z,8.85
2023-02-23T06:35:57.822Z,8.27
2023-02-23T06:38:25.318Z,7.53
2023-02-23T06:40:52.615Z,8.55
2023-02-23T06:43:22.228Z,8.00
2023-02-23T06:45:50.522Z,6.97
2023-02-23T06:48:18.032Z,8.73
2023-02-23T06:50:45.260Z,8.15
2023-02-23T06:53:12.810Z,7.63
2023-02-23T06:55:40.061Z,8.82
2023-02-23T06:58:08.082Z,8.77
2023-02-23T07:00:35.350Z,9.82
2023-02-23T07:03:02.933Z,9.75
2023-02-23T07:05:30.500Z,9.70
2023-02-23T07:07:58.089Z,8.55
2023-02-23T07:10:25.326Z,8.27
2023-02-23T07:12:53.940Z,8.68
2023-02-23T07:15:21.801Z,9.13
2023-02-23T07:17:49.452Z,9.50
2023-02-23T07:20:16.838Z,8.63
2023-02-23T07:22:44.575Z,8.45
2023-02-23T07:25:12.101Z,10.07
2023-02-23T07:27:39.676Z,9.43
2023-02-23T07:30:07.715Z,9.40
2023-02-23T07:32:35.465Z,9.75
2023-02-23T07:35:03.744Z,9.00
2023-02-23T07:37:31.342Z,10.40
2023-02-23T07:40:00.780Z,8.52
2023-02-23T07:42:28.897Z,8.80
2023-02-23T07:44:56.269Z,9.45
2023-02-23T07:47:30.908Z,9.23
2023-02-23T07:49:59.876Z,9.15
2023-02-23T07:52:27.471Z,7.72
2023-02-23T07:54:54.790Z,9.15
2023-02-23T07:57:24.817Z,9.57
2023-02-23T07:59:52.208Z,8.98
2023-02-23T08:02:19.782Z,10.13
2023-02-23T08:04:47.962Z,9.70
2023-02-23T08:07:15.751Z,9.63
2023-02-23T08:09:42.954Z,9.88
2023-02-23T08:12:10.637Z,10.10
2023-02-23T08:14:37.846Z,8.52
2023-02-23T08:17:05.459Z,9.23
2023-02-23T08:19:32.825Z,9.35
2023-02-23T08:22:00.707Z,9.15
2023-02-23T08:24:29.574Z,10.60
2023-02-23T08:26:58.691Z,9.38
2023-02-23T08:29:26.018Z,9.57
2023-02-23T08:31:53.691Z,9.93
2023-02-23T08:34:22.828Z,9.23
2023-02-23T08:36:51.461Z,10.80
2023-02-23T08:39:19.058Z,9.60
2023-02-23T08:41:46.573Z,9.27
2023-02-23T08:44:13.828Z,9.57
2023-02-23T08:46:41.407Z,10.18
2023-02-23T08:49:10.884Z,10.00
2023-02-23T08:51:38.691Z,9.82
2023-02-23T08:54:10.103Z,9.60
2023-02-23T08:56:37.712Z,8.57
2023-02-23T08:59:05.126Z,10.07
2023-02-23T09:01:32.874Z,9.52
2023-02-23T09:04:01.082Z,8.57
2023-02-23T09:06:28.736Z,8.68
2023-02-23T09:08:56.473Z,8.48
2023-02-23T09:11:24.478Z,9.25
2023-02-23T09:13:51.717Z,7.82
2023-02-23T09:16:19.417Z,8.02
2023-02-23T09:18:46.647Z,7.72
2023-02-23T09:21:21.422Z,8.35
2023-02-23T09:23:51.435Z,8.45
2023-02-23T09:26:19.891Z,7.88
2023-02-23T09:28:47.634Z,7.40
2023-02-23T09:31:18.548Z,9.13
2023-02-23T09:33:46.177Z,8.13
2023-02-23T09:36:16.918Z,7.55
2023-02-23T09:38:50.394Z,8.43
2023-02-23T09:41:55.533Z,8.98
2023-02-23T09:44:42.489Z,8.57
2023-02-23T09:47:12.987Z,8.70
2023-02-23T09:49:44.612Z,9.15
2023-02-23T09:52:21.818Z,8.65
2023-02-23T09:54:49.449Z,9.07
2023-02-23T09:57:22.965Z,9.85
2023-02-23T09:59:50.273Z,9.82
2023-02-23T10:02:43.992Z,10.05
2023-02-23T10:05:17.393Z,9.82
2023-02-23T10:07:48.780Z,9.95
2023-02-23T10:10:43.896Z,10.20
2023-02-23T10:13:40.156Z,10.52
2023-02-23T10:16:29.544Z,9.82
2023-02-23T10:19:17.910Z,9.07
2023-02-23T10:21:54.498Z,10.50
2023-02-23T10:24:35.456Z,9.57
2023-02-23T10:27:20.253Z,9.98
2023-02-23T10:29:53.973Z,10.30
2023-02-23T10:32:48.216Z,11.02
2023-02-23T10:35:20.446Z,9.88
2023-02-23T10:37:49.126Z,10.50
2023-02-23T10:40:20.900Z,10.90
2023-02-23T10:42:48.308Z,9.70
2023-02-23T10:45:24.704Z,11.98
2023-02-23T10:48:21.262Z,10.35
2023-02-23T10:51:00.333Z,10.98
2023-02-23T10:53:34.252Z,10.23
2023-02-23T10:56:11.031Z,10.55
2023-02-23T10:58:48.741Z,10.55
2023-02-23T11:01:41.822Z,10.75
2023-02-23T11:04:49.961Z,10.48
2023-02-23T11:07:32.255Z,10.05
2023-02-23T11:10:19.054Z,10.38
2023-02-23T11:12:46.697Z,11.15
2023-02-23T11:15:46.431Z,10.75
2023-02-23T11:18:23.120Z,11.70
2023-02-23T11:20:51.669Z,11.13
2023-02-23T11:23:24.557Z,11.70
2023-02-23T11:26:00.220Z,12.95
2023-02-23T11:28:32.895Z,11.27
2023-02-23T11:31:15.477Z,13.15
2023-02-23T11:33:43.734Z,13.18
2023-02-23T11:36:26.942Z,12.38
2023-02-23T11:39:17.920Z,11.57
2023-02-23T11:41:45.430Z,11.80
2023-02-23T11:44:22.296Z,11.90
2023-02-23T11:46:51.749Z,12.23
2023-02-23T11:49:23.717Z,11.60
2023-02-23T11:51:52.325Z,11.27
2023-02-23T11:54:31.296Z,13.15
2023-02-23T11:57:02.365Z,11.05
2023-02-23T11:59:39.301Z,12.15
2023-02-23T12:02:25.880Z,12.63
2023-02-23T12:05:28.284Z,10.85
2023-02-23T12:08:10.688Z,10.25
2023-02-23T12:10:41.650Z,12.10
2023-02-23T12:13:38.080Z,12.82
2023-02-23T12:16:21.165Z,12.18
2023-02-23T12:19:02.857Z,11.52
2023-02-23T12:21:37.270Z,12.48
2023-02-23T12:24:30.199Z,13.88
2023-02-23T12:27:14.157Z,11.98
2023-02-23T12:30:03.844Z,13.00
2023-02-23T12:32:57.967Z,12.23
2023-02-23T12:35:31.949Z,13.57
2023-02-23T12:38:46.148Z,12.57
2023-02-23T12:41:16.476Z,12.40
2023-02-23T12:43:59.975Z,12.82
2023-02-23T12:46:43.553Z,10.77
2023-02-23T12:49:50.751Z,12.18
2023-02-23T12:52:25.912Z,13.40
2023-02-23T12:54:53.720Z,11.88
2023-02-23T12:57:32.540Z,12.25
2023-02-23T13:00:10.063Z,11.50
2023-02-23T13:03:19.189Z,13.45
2023-02-23T13:06:09.884Z,17.20
2023-02-23T13:08:47.509Z,12.70
2023-02-23T13:11:52.752Z,13.38
2023-02-23T13:14:35.211Z,12.98
2023-02-23T13:17:19.536Z,12.38
2023-02-23T13:19:53.006Z,13.68
2023-02-23T13:22:48.344Z,13.25
2023-02-23T13:25:38.354Z,13.70
2023-02-23T13:28:33.622Z,12.40
2023-02-23T13:31:02.979Z,12.70
2023-02-23T13:33:43.945Z,12.10
2023-02-23T13:36:13.035Z,12.27
2023-02-23T13:39:18.508Z,12.43
2023-02-23T13:41:51.006Z,13.63
2023-02-23T13:47:00.560Z,11.80
2023-02-23T13:49:28.925Z,14.05
2023-02-23T13:52:01.102Z,12.70
2023-02-23T13:54:34.159Z,15.02
2023-02-23T13:57:12.976Z,13.20
2023-02-23T13:59:47.896Z,13.40
2023-02-23T14:02:37.273Z,13.30
2023-02-23T14:05:13.648Z,13.23
2023-02-23T14:07:45.145Z,14.02
2023-02-23T14:10:23.170Z,15.80
2023-02-23T14:13:26.168Z,13.20
2023-02-23T14:16:12.429Z,14.07
2023-02-23T14:19:10.690Z,13.02
2023-02-23T14:21:56.588Z,13.77
2023-02-23T14:24:27.177Z,13.55
2023-02-23T14:27:03.597Z,15.07
2023-02-23T14:29:40.076Z,13.90
2023-02-23T14:32:11.008Z,14.55
2023-02-23T14:34:52.545Z,13.35
2023-02-23T14:37:41.486Z,13.73
2023-02-23T14:40:23.387Z,13.00
2023-02-23T14:45:28.894Z,14.68
2023-02-23T14:48:01.479Z,14.05
2023-02-23T14:50:32.596Z,13.45
2023-02-23T14:53:02.287Z,12.98
2023-02-23T14:55:33.076Z,14.43
2023-02-23T14:58:02.142Z,14.57
2023-02-23T15:00:33.133Z,14.27
2023-02-23T15:03:02.209Z,13.80
2023-02-23T15:05:45.014Z,14.65
2023-02-23T15:08:18.797Z,15.05
2023-02-23T15:10:50.026Z,13.98
2023-02-23T15:13:33.924Z,14.60
2023-02-23T15:16:08.696Z,13.32
2023-02-23T15:18:41.624Z,13.23
2023-02-23T15:21:13.870Z,14.75
2023-02-23T15:23:45.123Z,13.73
2023-02-23T15:26:24.164Z,13.70
2023-02-23T15:28:52.837Z,14.35
2023-02-23T15:31:20.408Z,14.68
2023-02-23T15:33:50.855Z,15.38
2023-02-23T15:36:34.922Z,14.30
2023-02-23T15:39:07.073Z,14.60
2023-02-23T15:41:38.535Z,15.23
2023-02-23T15:44:14.968Z,15.70
2023-02-23T15:46:45.442Z,15.25
2023-02-23T15:49:19.545Z,18.27
2023-02-23T15:51:52.868Z,16.45
2023-02-23T15:54:23.006Z,15.60
2023-02-23T15:56:57.229Z,16.33
2023-02-23T15:59:31.820Z,15.73
2023-02-23T16:02:02.940Z,16.35
2023-02-23T16:04:33.820Z,16.75
2023-02-23T16:07:20.505Z,17.52
2023-02-23T16:10:25.602Z,16.63
2023-02-23T16:12:54.536Z,16.77
2023-02-23T16:15:32.948Z,17.05
2023-02-23T16:18:10.337Z,17.73
2023-02-23T16:20:50.424Z,17.30
2023-02-23T16:23:39.401Z,16.85
2023-02-23T16:26:41.088Z,16.75
2023-02-23T16:29:14.567Z,18.15
2023-02-23T16:31:48.457Z,18.85
2023-02-23T16:34:26.700Z,17.50
2023-02-23T16:37:00.114Z,17.40
2023-02-23T16:39:30.407Z,17.77
2023-02-23T16:41:59.692Z,16.15
2023-02-23T16:44:37.805Z,17.17
2023-02-23T16:47:13.024Z,16.88
2023-02-23T16:49:40.489Z,17.48
2023-02-23T16:52:25.796Z,18.25
2023-02-23T16:54:55.757Z,18.35
2023-02-23T16:57:40.941Z,16.63
2023-02-23T17:00:18.137Z,16.70
2023-02-23T17:02:45.935Z,17.35
2023-02-23T17:05:14.908Z,18.45
2023-02-23T17:07:42.398Z,19.10
2023-02-23T17:10:24.654Z,17.42
2023-02-23T17:12:54.567Z,16.92
2023-02-23T17:15:23.499Z,17.23
2023-02-23T17:17:53.347Z,17.52
2023-02-23T17:20:21.408Z,18.23
2023-02-23T17:22:49.750Z,18.58
2023-02-23T17:25:17.832Z,17.95
2023-02-23T17:27:45.634Z,19.45
2023-02-23T17:30:13.425Z,17.35
2023-02-23T17:32:41.284Z,19.35
2023-02-23T17:35:09.855Z,18.33
2023-02-23T17:37:38.095Z,18.60
2023-02-23T17:40:08.570Z,19.00
2023-02-23T17:42:36.209Z,18.27
2023-02-23T17:45:05.888Z,17.98
2023-02-23T17:47:35.121Z,17.30
2023-02-23T17:50:02.965Z,17.42
2023-02-23T17:52:30.817Z,17.67
2023-02-23T17:54:59.456Z,18.58
2023-02-23T17:57:30.478Z,17.70
2023-02-23T17:59:57.854Z,16.95
2023-02-23T18:02:25.837Z,18.48
2023-02-23T18:04:53.201Z,17.48
2023-02-23T18:07:22.978Z,16.52
2023-02-23T18:09:50.790Z,18.25
2023-02-23T18:12:19.464Z,16.90
2023-02-23T18:14:47.093Z,16.90
2023-02-23T18:17:15.750Z,17.30
2023-02-23T18:19:45.783Z,17.02
2023-02-23T18:22:14.560Z,15.27
2023-02-23T18:24:42.539Z,16.83
2023-02-23T18:27:10.188Z,18.00
2023-02-23T18:29:37.727Z,18.45
2023-02-23T18:32:06.745Z,17.30
2023-02-23T18:34:34.895Z,16.98
2023-02-23T18:37:03.642Z,17.52
2023-02-23T18:39:32.035Z,17.08
2023-02-23T18:42:00.550Z,16.48
2023-02-23T18:44:28.245Z,17.63
2023-02-23T18:46:55.919Z,16.98
2023-02-23T18:49:25.065Z,17.80
2023-02-23T18:51:52.762Z,17.75
2023-02-23T18:54:22.523Z,16.88
2023-02-23T18:56:50.270Z,18.80
2023-02-23T18:59:17.547Z,18.73
2023-02-23T19:01:47.963Z,19.30
2023-02-23T19:04:15.384Z,17.77
2023-02-23T19:06:45.199Z,18.35
2023-02-23T19:09:14.598Z,19.38
2023-02-23T19:11:43.379Z,18.30
2023-02-23T19:14:16.198Z,19.77
2023-02-23T19:16:45.480Z,18.20
2023-02-23T19:19:13.866Z,19.70
2023-02-23T19:21:41.967Z,20.65
2023-02-23T19:24:09.293Z,19.90
2023-02-23T19:26:38.254Z,19.55
2023-02-23T19:29:05.761Z,19.80
2023-02-23T19:31:34.412Z,18.92
2023-02-23T19:34:05.000Z,19.80
2023-02-23T19:36:34.485Z,20.67
2023-02-23T19:39:15.709Z,19.27
2023-02-23T19:41:44.725Z,20.35
2023-02-23T19:44:11.982Z,20.08
2023-02-23T19:46:40.104Z,21.33
2023-02-23T19:49:07.463Z,21.15
2023-02-23T19:51:35.182Z,19.27
2023-02-23T19:54:02.892Z,21.08
2023-02-23T19:56:30.770Z,20.95
2023-02-23T19:59:01.032Z,22.38
2023-02-23T20:01:30.694Z,21.58
2023-02-23T20:04:06.618Z,21.85
2023-02-23T20:06:39.066Z,21.75
2023-02-23T20:09:07.508Z,23.65
2023-02-23T20:11:35.014Z,21.92
2023-02-23T20:14:04.382Z,22.13
2023-02-23T20:16:32.090Z,21.95
2023-02-23T20:19:00.726Z,22.95
2023-02-23T20:21:37.403Z,22.95
2023-02-23T20:24:14.657Z,21.52
2023-02-23T20:26:42.333Z,22.58
2023-02-23T20:29:11.362Z,22.20
2023-02-23T20:31:42.061Z,22.80
2023-02-23T20:34:11.232Z,22.90
2023-02-23T20:36:39.012Z,22.00
2023-02-23T20:39:06.384Z,23.77
2023-02-23T20:41:34.106Z,23.75
2023-02-23T20:44:01.518Z,23.05
2023-02-23T20:46:30.638Z,23.67
2023-02-23T20:48:59.402Z,24.73
2023-02-23T20:51:27.236Z,23.08
2023-02-23T20:53:54.922Z,22.52
2023-02-23T20:56:23.110Z,23.13
2023-02-23T20:58:50.611Z,24.38
2023-02-23T21:01:23.686Z,24.55
2023-02-23T21:03:52.637Z,24.05
2023-02-23T21:06:22.857Z,25.08
2023-02-23T21:08:51.080Z,23.65
2023-02-23T21:11:20.273Z,25.30
2023-02-23T21:13:48.140Z,24.67
2023-02-23T21:16:23.708Z,24.77
2023-02-23T21:19:03.949Z,26.25
2023-02-23T21:21:38.135Z,25.50
2023-02-23T21:24:05.560Z,25.65
2023-02-23T21:26:33.372Z,26.45
2023-02-23T21:29:01.827Z,25.15
2023-02-23T21:31:29.441Z,26.38
2023-02-23T21:33:56.818Z,25.38
2023-02-23T21:36:24.399Z,25.83
2023-02-23T21:38:51.790Z,25.15
2023-02-23T21:41:19.619Z,26.42
2023-02-23T21:43:47.829Z,25.90
2023-02-23T21:46:16.783Z,27.38
2023-02-23T21:48:44.393Z,28.70
2023-02-23T21:51:14.332Z,26.77
2023-02-23T21:53:43.387Z,27.20
2023-02-23T21:56:14.276Z,26.98
2023-02-23T21:58:47.882Z,29.42
2023-02-23T22:01:21.756Z,27.63
2023-02-23T22:03:49.940Z,29.10
2023-02-23T22:06:20.519Z,29.70
2023-02-23T22:08:51.887Z,28.08
2023-02-23T22:11:22.326Z,27.42
2023-02-23T22:13:54.492Z,27.63
2023-02-23T22:16:22.311Z,27.17
2023-02-23T22:18:50.599Z,26.27
2023-02-23T22:21:19.192Z,27.92
2023-02-23T22:23:48.055Z,28.13
2023-02-23T22:26:16.125Z,28.17
2023-02-23T22:28:43.516Z,27.02
2023-02-23T22:31:13.826Z,29.02
2023-02-23T22:33:43.802Z,28.48
2023-02-23T22:36:13.480Z,28.05
2023-02-23T22:38:41.910Z,28.60
2023-02-23T22:41:10.543Z,26.35
2023-02-23T22:43:39.186Z,27.30
2023-02-23T22:46:07.956Z,27.20
2023-02-23T22:48:36.071Z,28.15
2023-02-23T22:51:04.233Z,26.63
2023-02-23T22:53:31.510Z,27.60
2023-02-23T22:55:59.705Z,26.27
2023-02-23T22:58:26.956Z,26.02
2023-02-23T23:01:04.168Z,25.30
2023-02-23T23:03:47.427Z,25.67
2023-02-23T23:06:17.965Z,25.40
2023-02-23T23:08:47.781Z,25.38
2023-02-23T23:11:19.147Z,26.17
2023-02-23T23:13:51.869Z,34.42
2023-02-23T23:16:31.048Z,25.40
2023-02-23T23:19:12.231Z,26.40
2023-02-23T23:21:41.611Z,24.60
2023-02-23T23:24:13.422Z,25.20
2023-02-23T23:26:43.018Z,26.30
2023-02-23T23:29:13.726Z,25.27
2023-02-23T23:31:45.729Z,24.57
2023-02-23T23:36:46.907Z,23.77
2023-02-23T23:39:16.403Z,23.75
2023-02-23T23:41:48.057Z,24.48
2023-02-23T23:44:20.140Z,24.52
2023-02-23T23:46:50.868Z,23.85
2023-02-23T23:49:25.648Z,24.10
2023-02-23T23:51:56.489Z,23.38
2023-02-23T23:54:32.558Z,24.33
2023-02-23T23:57:03.945Z,22.00
2023-02-23T23:59:32.818Z,24.35
